createdAt,value
2023-02-03T00:01:42.588Z,44.00
2023-02-03T00:04:09.915Z,45.67
2023-02-03T00:06:36.400Z,48.17
2023-02-03T00:09:02.875Z,44.42
2023-02-03T00:11:30.381Z,45.60
2023-02-03T00:13:56.873Z,52.78
2023-02-03T00:16:23.361Z,43.00
2023-02-03T00:18:49.773Z,41.75
2023-02-03T00:21:16.284Z,45.05
2023-02-03T00:23:42.953Z,43.03
2023-02-03T00:26:11.547Z,41.50
2023-02-03T00:28:38.007Z,38.90
2023-02-03T00:31:04.759Z,38.60
2023-02-03T00:33:31.151Z,42.83
2023-02-03T00:35:57.572Z,39.25
2023-02-03T00:38:27.639Z,40.90
2023-02-03T00:40:54.465Z,36.20
2023-02-03T00:43:21.244Z,37.88
2023-02-03T00:45:48.089Z,33.33
2023-02-03T00:48:14.508Z,36.88
2023-02-03T00:50:40.887Z,31.98
2023-02-03T00:53:07.452Z,34.35
2023-02-03T00:55:33.865Z,35.58
2023-02-03T00:58:00.239Z,35.85
2023-02-03T01:00:26.914Z,34.08
2023-02-03T01:02:53.490Z,37.55
2023-02-03T01:05:19.890Z,31.63
2023-02-03T01:07:46.390Z,33.20
2023-02-03T01:10:14.703Z,33.90
2023-02-03T01:12:41.159Z,32.35
2023-02-03T01:15:08.020Z,36.65
2023-02-03T01:17:34.449Z,33.85
2023-02-03T01:20:00.966Z,33.05
2023-02-03T01:22:30.456Z,32.47
2023-02-03T01:24:57.049Z,32.63
2023-02-03T01:27:23.827Z,32.03
2023-02-03T01:29:50.356Z,32.50
2023-02-03T01:32:16.738Z,31.58
2023-02-03T01:34:43.168Z,29.70
2023-02-03T01:37:09.658Z,32.05
2023-02-03T01:39:36.121Z,29.60
2023-02-03T01:42:02.543Z,29.55
2023-02-03T01:44:58.435Z,35.70
2023-02-03T01:47:29.363Z,28.35
2023-02-03T01:50:04.118Z,32.10
2023-02-03T01:52:31.558Z,28.48
2023-02-03T01:54:59.404Z,30.73
2023-02-03T01:57:59.558Z,32.10
2023-02-03T02:00:26.328Z,30.60
2023-02-03T02:02:53.743Z,30.83
2023-02-03T02:05:29.386Z,33.58
2023-02-03T02:07:56.876Z,30.77
2023-02-03T02:10:23.349Z,27.60
2023-02-03T02:12:49.960Z,32.20
2023-02-03T02:15:16.541Z,31.63
2023-02-03T02:18:20.511Z,29.92
2023-02-03T02:21:01.869Z,26.80
2023-02-03T02:23:45.109Z,28.83
2023-02-03T02:26:32.197Z,28.60
2023-02-03T02:29:20.081Z,27.80
2023-02-03T02:32:14.397Z,32.85
2023-02-03T02:34:49.335Z,32.90
2023-02-03T02:37:26.749Z,27.35
2023-02-03T02:39:58.089Z,29.75
2023-02-03T02:42:39.719Z,29.38
2023-02-03T02:45:19.448Z,31.45
2023-02-03T02:47:45.911Z,30.38
2023-02-03T02:50:20.973Z,26.73
2023-02-03T02:52:48.449Z,27.13
2023-02-03T02:55:17.617Z,25.85
2023-02-03T02:57:44.622Z,26.95
2023-02-03T03:00:12.267Z,25.33
2023-02-03T03:02:38.685Z,26.67
2023-02-03T03:05:06.747Z,24.52
2023-02-03T03:07:39.699Z,27.70
2023-02-03T03:10:11.453Z,24.17
2023-02-03T03:12:42.913Z,26.98
2023-02-03T03:15:12.617Z,25.35
2023-02-03T03:17:44.526Z,26.25
2023-02-03T03:20:14.858Z,25.13
2023-02-03T03:22:46.792Z,24.58
2023-02-03T03:25:21.747Z,25.80
2023-02-03T03:27:56.463Z,27.33
2023-02-03T03:30:29.684Z,24.17
2023-02-03T03:32:56.453Z,22.60
2023-02-03T03:35:23.377Z,26.73
2023-02-03T03:37:59.783Z,21.52
2023-02-03T03:40:38.461Z,22.63
2023-02-03T03:43:15.621Z,25.38
2023-02-03T03:46:02.687Z,23.00
2023-02-03T03:48:53.197Z,25.52
2023-02-03T03:51:26.983Z,20.67
2023-02-03T03:53:54.101Z,22.30
2023-02-03T03:56:25.653Z,24.55
2023-02-03T03:58:54.768Z,25.70
2023-02-03T04:01:23.324Z,22.90
2023-02-03T04:03:56.799Z,22.98
2023-02-03T04:06:23.746Z,21.48
2023-02-03T04:08:50.246Z,23.70
2023-02-03T04:11:36.657Z,24.88
2023-02-03T04:14:03.413Z,19.52
2023-02-03T04:16:29.838Z,25.15
2023-02-03T04:18:57.249Z,19.25
2023-02-03T04:21:23.718Z,24.15
2023-02-03T04:23:51.354Z,18.00
2023-02-03T04:26:18.136Z,22.92
2023-02-03T04:28:44.909Z,21.58
2023-02-03T04:31:11.415Z,17.67
2023-02-03T04:33:37.945Z,20.90
2023-02-03T04:36:04.539Z,21.10
2023-02-03T04:38:30.985Z,17.17
2023-02-03T04:40:57.400Z,18.67
2023-02-03T04:43:23.798Z,20.67
2023-02-03T04:45:50.460Z,16.95
2023-02-03T04:48:16.926Z,20.20
2023-02-03T04:50:43.341Z,18.45
2023-02-03T04:53:09.713Z,18.63
2023-02-03T04:55:36.189Z,16.85
2023-02-03T04:58:02.711Z,16.50
2023-02-03T05:00:29.944Z,14.52
2023-02-03T05:02:56.631Z,16.60
2023-02-03T05:05:23.040Z,15.02
2023-02-03T05:07:49.469Z,17.95
2023-02-03T05:10:15.926Z,20.60
2023-02-03T05:12:45.267Z,15.45
2023-02-03T05:15:11.645Z,16.52
2023-02-03T05:17:39.940Z,14.70
2023-02-03T05:20:07.551Z,18.60
2023-02-03T05:22:35.490Z,15.73
2023-02-03T05:25:02.881Z,14.13
2023-02-03T05:27:29.336Z,14.57
2023-02-03T05:29:55.942Z,11.63
2023-02-03T05:32:22.405Z,14.85
2023-02-03T05:34:48.778Z,18.13
2023-02-03T05:37:15.183Z,12.07
2023-02-03T05:39:41.556Z,17.25
2023-02-03T05:42:08.059Z,13.48
2023-02-03T05:44:34.446Z,11.73
2023-02-03T05:47:00.876Z,13.00
2023-02-03T05:49:27.345Z,13.73
2023-02-03T05:51:55.010Z,14.57
2023-02-03T05:54:21.858Z,17.00
2023-02-03T05:56:48.323Z,10.73
2023-02-03T05:59:14.737Z,15.50
2023-02-03T06:01:41.258Z,18.05
2023-02-03T06:04:07.898Z,16.33
2023-02-03T06:06:34.590Z,13.95
2023-02-03T06:09:06.560Z,13.85
2023-02-03T06:11:33.586Z,14.48
2023-02-03T06:14:00.425Z,18.25
2023-02-03T06:16:27.838Z,15.50
2023-02-03T06:18:55.501Z,14.70
2023-02-03T06:21:22.422Z,14.75
2023-02-03T06:23:48.806Z,18.40
2023-02-03T06:26:15.547Z,16.75
2023-02-03T06:28:42.028Z,18.50
2023-02-03T06:31:08.610Z,17.77
2023-02-03T06:33:35.382Z,16.33
2023-02-03T06:36:01.925Z,13.50
2023-02-03T06:38:28.362Z,14.65
2023-02-03T06:40:54.758Z,15.63
2023-02-03T06:43:21.287Z,18.30
2023-02-03T06:45:47.979Z,18.42
2023-02-03T06:48:14.683Z,16.38
2023-02-03T06:50:41.364Z,17.00
2023-02-03T06:53:07.753Z,19.92
2023-02-03T06:55:34.148Z,15.70
2023-02-03T06:58:00.596Z,16.27
2023-02-03T07:00:27.336Z,17.60
2023-02-03T07:02:55.626Z,17.63
2023-02-03T07:05:23.017Z,16.42
2023-02-03T07:07:50.338Z,19.23
2023-02-03T07:10:17.241Z,20.00
2023-02-03T07:12:44.191Z,20.05
2023-02-03T07:15:11.588Z,21.20
2023-02-03T07:17:38.055Z,20.83
2023-02-03T07:20:05.184Z,20.42
2023-02-03T07:22:31.644Z,20.42
2023-02-03T07:24:58.058Z,22.15
2023-02-03T07:27:24.436Z,19.58
2023-02-03T07:29:50.932Z,20.63
2023-02-03T07:32:19.637Z,20.48
2023-02-03T07:34:46.179Z,26.77
2023-02-03T07:37:12.635Z,19.55
2023-02-03T07:39:39.076Z,19.15
2023-02-03T07:42:08.527Z,23.15
2023-02-03T07:44:35.034Z,21.20
2023-02-03T07:47:01.457Z,21.30
2023-02-03T07:49:27.879Z,22.38
2023-02-03T07:51:54.309Z,20.55
2023-02-03T07:54:20.707Z,25.60
2023-02-03T07:56:47.168Z,24.50
2023-02-03T07:59:13.591Z,22.85
2023-02-03T08:01:40.010Z,24.38
2023-02-03T08:04:06.545Z,25.48
2023-02-03T08:06:33.274Z,26.50
2023-02-03T08:08:59.821Z,27.20
2023-02-03T08:11:26.239Z,26.48
2023-02-03T08:13:52.718Z,19.90
2023-02-03T08:16:19.178Z,25.42
2023-02-03T08:18:45.639Z,23.17
2023-02-03T08:21:12.105Z,23.00
2023-02-03T08:23:38.770Z,22.00
2023-02-03T08:26:05.254Z,22.15
2023-02-03T08:28:31.833Z,19.65
2023-02-03T08:30:58.282Z,22.52
2023-02-03T08:33:24.818Z,21.60
2023-02-03T08:35:51.252Z,18.52
2023-02-03T08:38:17.855Z,16.38
2023-02-03T08:40:44.359Z,20.73
2023-02-03T08:43:11.217Z,15.45
2023-02-03T08:45:40.317Z,19.33
2023-02-03T08:48:06.896Z,16.75
2023-02-03T08:50:33.280Z,21.95
2023-02-03T08:52:59.770Z,20.42
2023-02-03T08:55:26.319Z,18.45
2023-02-03T08:57:52.789Z,19.63
2023-02-03T09:00:19.708Z,25.42
2023-02-03T09:02:46.175Z,19.73
2023-02-03T09:05:12.859Z,19.80
2023-02-03T09:07:39.457Z,16.05
2023-02-03T09:10:05.994Z,16.42
2023-02-03T09:12:32.497Z,24.88
2023-02-03T09:14:58.882Z,19.00
2023-02-03T09:17:25.317Z,21.40
2023-02-03T09:19:52.008Z,23.42
2023-02-03T09:22:18.543Z,24.17
2023-02-03T09:24:45.114Z,18.02
2023-02-03T09:27:11.740Z,21.50
2023-02-03T09:29:38.131Z,22.10
2023-02-03T09:32:08.808Z,23.75
2023-02-03T09:34:35.340Z,21.55
2023-02-03T09:37:01.824Z,16.88
2023-02-03T09:39:28.295Z,20.98
2023-02-03T09:42:25.760Z,25.83
2023-02-03T09:45:18.347Z,20.25
2023-02-03T09:47:45.367Z,18.55
2023-02-03T09:50:20.798Z,23.73
2023-02-03T09:52:47.854Z,20.20
2023-02-03T09:55:41.579Z,17.48
2023-02-03T09:58:14.803Z,21.45
2023-02-03T10:00:48.241Z,17.98
2023-02-03T10:03:32.962Z,25.27
2023-02-03T10:06:08.348Z,20.17
2023-02-03T10:08:58.351Z,24.77
2023-02-03T10:11:33.658Z,20.85
2023-02-03T10:14:13.368Z,19.55
2023-02-03T10:17:00.079Z,22.63
2023-02-03T10:19:51.213Z,21.77
2023-02-03T10:22:21.214Z,15.85
2023-02-03T10:24:47.628Z,17.92
2023-02-03T10:27:20.292Z,21.10
2023-02-03T10:29:51.881Z,16.00
2023-02-03T10:32:18.303Z,16.77
2023-02-03T10:34:47.503Z,18.35
2023-02-03T10:37:16.859Z,18.70
2023-02-03T10:39:47.632Z,21.23
2023-02-03T10:42:14.623Z,13.80
2023-02-03T10:44:47.446Z,18.02
2023-02-03T10:47:34.599Z,11.38
2023-02-03T10:50:16.072Z,16.70
2023-02-03T10:52:42.489Z,11.68
2023-02-03T10:55:30.981Z,15.10
2023-02-03T10:57:57.935Z,14.52
2023-02-03T11:00:31.301Z,15.27
2023-02-03T11:03:06.628Z,16.73
2023-02-03T11:05:33.389Z,17.58
2023-02-03T11:08:00.246Z,17.38
2023-02-03T11:10:39.041Z,21.58
2023-02-03T11:13:17.273Z,21.10
2023-02-03T11:15:47.570Z,17.90
2023-02-03T11:18:40.423Z,15.50
2023-02-03T11:21:09.035Z,14.80
2023-02-03T11:23:35.686Z,20.13
2023-02-03T11:26:14.313Z,16.42
2023-02-03T11:28:47.623Z,14.93
2023-02-03T11:31:20.262Z,18.40
2023-02-03T11:33:48.689Z,12.70
2023-02-03T11:36:15.281Z,17.30
2023-02-03T11:38:42.770Z,20.63
2023-02-03T11:41:16.342Z,17.55
2023-02-03T11:43:42.927Z,15.48
2023-02-03T11:46:09.811Z,22.85
2023-02-03T11:48:37.798Z,21.20
2023-02-03T11:51:28.625Z,19.77
2023-02-03T11:54:04.847Z,24.92
2023-02-03T11:56:58.806Z,23.73
2023-02-03T11:59:37.031Z,22.63
2023-02-03T12:02:20.022Z,27.70
2023-02-03T12:05:29.328Z,22.20
2023-02-03T12:07:58.407Z,22.55
2023-02-03T12:11:02.540Z,24.83
2023-02-03T12:13:36.120Z,21.80
2023-02-03T12:16:28.171Z,26.42
2023-02-03T12:19:13.450Z,31.27
2023-02-03T12:21:45.006Z,20.45
2023-02-03T12:24:26.447Z,21.23
2023-02-03T12:27:03.348Z,27.08
2023-02-03T12:29:40.105Z,27.80
2023-02-03T12:32:21.346Z,23.38
2023-02-03T12:34:54.969Z,26.40
2023-02-03T12:37:44.092Z,22.52
2023-02-03T12:40:36.106Z,27.70
2023-02-03T12:43:22.113Z,28.07
2023-02-03T12:45:58.242Z,23.65
2023-02-03T12:48:42.987Z,18.77
2023-02-03T12:51:16.735Z,22.98
2023-02-03T12:53:50.233Z,20.75
2023-02-03T12:56:23.351Z,23.65
2023-02-03T12:58:52.721Z,21.55
2023-02-03T13:01:23.338Z,27.10
2023-02-03T13:04:22.256Z,27.90
2023-02-03T13:06:58.638Z,23.17
2023-02-03T13:09:38.765Z,28.67
2023-02-03T13:12:25.175Z,22.73
2023-02-03T13:15:12.372Z,27.25
2023-02-03T13:18:16.370Z,25.55
2023-02-03T13:20:45.361Z,32.38
2023-02-03T13:23:14.207Z,25.77
2023-02-03T13:26:18.220Z,30.17
2023-02-03T13:29:03.487Z,28.77
2023-02-03T13:31:36.036Z,27.75
2023-02-03T13:34:32.534Z,27.65
2023-02-03T13:37:11.186Z,23.92
2023-02-03T13:39:46.886Z,20.60
2023-02-03T13:42:16.284Z,29.85
2023-02-03T13:44:44.801Z,25.95
2023-02-03T13:47:17.308Z,23.90
2023-02-03T13:52:31.746Z,29.70
2023-02-03T13:54:58.761Z,24.25
2023-02-03T13:57:34.673Z,27.35
2023-02-03T14:00:03.414Z,22.13
2023-02-03T14:02:41.353Z,30.40
2023-02-03T14:05:44.290Z,22.27
2023-02-03T14:08:26.144Z,29.17
2023-02-03T14:11:31.641Z,29.20
2023-02-03T14:14:20.334Z,30.13
2023-02-03T14:16:55.244Z,21.77
2023-02-03T14:19:21.607Z,21.20
2023-02-03T14:21:51.819Z,28.73
2023-02-03T14:24:18.823Z,28.48
2023-02-03T14:26:47.633Z,33.13
2023-02-03T14:29:32.450Z,30.27
2023-02-03T14:32:00.405Z,25.70
2023-02-03T14:34:35.355Z,29.13
2023-02-03T14:37:29.629Z,22.73
2023-02-03T14:40:11.071Z,34.15
2023-02-03T14:43:04.805Z,27.53
2023-02-03T14:45:57.316Z,24.75
2023-02-03T14:49:01.917Z,26.95
2023-02-03T14:51:52.280Z,29.50
2023-02-03T14:54:34.242Z,31.35
2023-02-03T14:57:35.801Z,34.85
2023-02-03T15:00:07.348Z,35.92
2023-02-03T15:02:34.848Z,32.55
2023-02-03T15:05:23.849Z,35.30
2023-02-03T15:07:53.267Z,39.40
2023-02-03T15:10:22.008Z,33.90
2023-02-03T15:12:53.204Z,37.85
2023-02-03T15:15:29.044Z,27.88
2023-02-03T15:18:00.305Z,34.65
2023-02-03T15:20:38.744Z,30.30
2023-02-03T15:23:18.897Z,28.25
2023-02-03T15:25:45.452Z,35.95
2023-02-03T15:28:13.383Z,37.42
2023-02-03T15:30:40.661Z,35.88
2023-02-03T15:33:20.379Z,35.40
2023-02-03T15:35:49.448Z,31.98
2023-02-03T15:38:20.714Z,25.95
2023-02-03T15:40:54.540Z,28.27
2023-02-03T15:43:32.763Z,21.73
2023-02-03T15:46:06.995Z,24.05
2023-02-03T15:48:39.250Z,22.95
2023-02-03T15:51:51.855Z,24.30
2023-02-03T15:54:29.904Z,24.33
2023-02-03T15:57:00.920Z,27.92
2023-02-03T15:59:54.865Z,24.00
2023-02-03T16:02:30.386Z,22.95
2023-02-03T16:04:56.968Z,23.80
2023-02-03T16:07:26.256Z,27.83
2023-02-03T16:09:53.956Z,23.63
2023-02-03T16:12:24.440Z,25.73
2023-02-03T16:14:51.977Z,30.38
2023-02-03T16:17:24.623Z,25.77
2023-02-03T16:19:52.024Z,27.50
2023-02-03T16:22:34.014Z,29.42
2023-02-03T16:25:20.360Z,27.83
2023-02-03T16:28:32.474Z,18.92
2023-02-03T16:31:20.306Z,25.98
2023-02-03T16:34:06.875Z,32.78
2023-02-03T16:36:52.006Z,24.92
2023-02-03T16:39:37.198Z,34.55
2023-02-03T16:42:32.453Z,25.80
2023-02-03T16:45:17.698Z,28.55
2023-02-03T16:48:04.301Z,30.55
2023-02-03T16:50:49.983Z,39.58
2023-02-03T16:53:19.652Z,26.50
2023-02-03T16:55:46.993Z,24.58
2023-02-03T16:58:13.495Z,23.05
2023-02-03T17:00:41.893Z,30.75
2023-02-03T17:03:11.167Z,26.88
2023-02-03T17:05:38.701Z,28.77
2023-02-03T17:08:05.955Z,28.92
2023-02-03T17:10:37.688Z,28.45
2023-02-03T17:13:04.230Z,21.73
2023-02-03T17:15:31.017Z,24.15
2023-02-03T17:18:01.177Z,26.75
2023-02-03T17:20:27.568Z,30.35
2023-02-03T17:22:54.781Z,25.10
2023-02-03T17:25:21.774Z,25.85
2023-02-03T17:27:48.226Z,22.00
2023-02-03T17:30:15.141Z,26.30
2023-02-03T17:32:41.502Z,25.33
2023-02-03T17:35:08.050Z,18.10
2023-02-03T17:37:35.036Z,24.80
2023-02-03T17:54:06.512Z,24.20
2023-02-03T17:56:35.483Z,27.33
2023-02-03T17:59:03.821Z,26.23
2023-02-03T18:01:31.655Z,22.27
2023-02-03T18:04:00.504Z,25.40
2023-02-03T18:06:28.520Z,25.98
2023-02-03T18:09:01.011Z,23.20
2023-02-03T18:13:54.210Z,20.92
2023-02-03T18:16:25.628Z,20.23
2023-02-03T18:18:52.995Z,24.35
2023-02-03T18:21:21.273Z,21.90
2023-02-03T18:23:49.527Z,20.08
2023-02-03T18:26:16.911Z,27.05
2023-02-03T18:28:43.288Z,25.25
2023-02-03T18:31:15.325Z,19.95
2023-02-03T18:33:43.611Z,17.23
2023-02-03T18:36:12.649Z,19.23
2023-02-03T18:38:40.574Z,23.73
2023-02-03T18:41:18.562Z,27.15
2023-02-03T18:43:45.295Z,20.67
2023-02-03T18:46:13.816Z,20.83
2023-02-03T18:48:40.270Z,23.10
2023-02-03T18:51:11.233Z,19.40
2023-02-03T18:53:38.311Z,29.85
2023-02-03T18:56:09.461Z,24.50
2023-02-03T18:58:39.035Z,25.23
2023-02-03T19:01:05.593Z,25.98
2023-02-03T19:03:32.103Z,24.73
2023-02-03T19:05:58.479Z,23.25
2023-02-03T19:08:24.902Z,23.42
2023-02-03T19:10:52.459Z,26.52
2023-02-03T19:13:19.743Z,24.90
2023-02-03T19:15:49.460Z,24.50
2023-02-03T19:18:15.915Z,23.63
2023-02-03T19:20:43.282Z,23.20
2023-02-03T19:23:11.495Z,28.52
2023-02-03T19:25:38.442Z,32.17
2023-02-03T19:28:05.904Z,24.75
2023-02-03T19:30:33.344Z,29.30
2023-02-03T19:32:59.759Z,28.33
2023-02-03T19:35:26.216Z,28.08
2023-02-03T19:37:53.708Z,31.50
2023-02-03T19:40:20.206Z,31.42
2023-02-03T19:42:46.715Z,27.70
2023-02-03T19:45:13.107Z,27.98
2023-02-03T19:47:39.495Z,20.15
2023-02-03T19:50:06.486Z,28.80
2023-02-03T19:52:37.883Z,33.70
2023-02-03T19:55:14.986Z,28.38
2023-02-03T19:57:54.988Z,29.48
2023-02-03T20:00:25.532Z,31.75
2023-02-03T20:02:51.891Z,32.88
2023-02-03T20:05:18.561Z,30.15
2023-02-03T20:07:44.974Z,23.85
2023-02-03T20:10:12.479Z,29.80
2023-02-03T20:12:38.857Z,27.10
2023-02-03T20:15:05.677Z,30.83
2023-02-03T20:17:32.078Z,30.73
2023-02-03T20:19:58.460Z,27.15
2023-02-03T20:22:24.873Z,27.55
2023-02-03T20:24:51.439Z,31.30
2023-02-03T20:27:17.918Z,33.97
2023-02-03T20:29:44.573Z,28.98
2023-02-03T20:32:11.481Z,36.28
2023-02-03T20:34:38.044Z,25.73
2023-02-03T20:37:06.554Z,29.40
2023-02-03T20:39:32.913Z,35.50
2023-02-03T20:41:59.281Z,28.83
2023-02-03T20:44:25.724Z,22.80
2023-02-03T20:46:52.887Z,28.85
2023-02-03T20:49:22.209Z,27.50
2023-02-03T20:51:48.582Z,34.63
2023-02-03T20:54:16.555Z,30.52
2023-02-03T20:56:43.574Z,28.33
2023-02-03T20:59:14.007Z,34.20
2023-02-03T21:02:16.436Z,31.35
2023-02-03T21:05:05.674Z,30.10
2023-02-03T21:07:42.218Z,35.70
2023-02-03T21:10:27.913Z,27.25
2023-02-03T21:12:55.965Z,23.67
2023-02-03T21:15:36.371Z,36.83
2023-02-03T21:18:46.157Z,30.92
2023-02-03T21:21:22.133Z,27.77
2023-02-03T21:23:55.332Z,35.97
2023-02-03T21:26:26.021Z,25.83
2023-02-03T21:28:54.348Z,31.58
2023-02-03T21:31:24.035Z,33.13
2023-02-03T21:33:51.628Z,34.28
2023-02-03T21:36:19.923Z,34.25
2023-02-03T21:38:54.984Z,30.80
2023-02-03T21:41:23.700Z,37.95
2023-02-03T21:43:55.230Z,33.17
2023-02-03T21:46:26.904Z,33.55
2023-02-03T21:48:57.919Z,33.03
2023-02-03T21:51:35.666Z,40.47
2023-02-03T21:54:18.628Z,36.35
2023-02-03T21:56:45.609Z,37.28
2023-02-03T21:59:19.351Z,31.95
2023-02-03T22:01:45.833Z,32.22
2023-02-03T22:04:12.212Z,35.83
2023-02-03T22:06:49.810Z,36.63
2023-02-03T22:09:18.961Z,37.00
2023-02-03T22:11:45.593Z,30.35
2023-02-03T22:14:13.508Z,36.80
2023-02-03T22:16:40.096Z,31.67
2023-02-03T22:19:06.515Z,40.65
2023-02-03T22:21:33.029Z,33.03
2023-02-03T22:24:03.608Z,25.88
2023-02-03T22:26:30.061Z,33.05
2023-02-03T22:28:56.565Z,31.55
2023-02-03T22:31:23.506Z,33.53
2023-02-03T22:33:50.020Z,33.97
2023-02-03T22:36:16.487Z,35.85
2023-02-03T22:38:43.120Z,34.72
2023-02-03T22:44:35.600Z,32.25
2023-02-03T22:50:08.284Z,39.10
2023-02-03T22:53:11.772Z,32.95
2023-02-03T22:55:46.501Z,34.63
2023-02-03T22:58:22.017Z,32.08
2023-02-03T23:00:59.526Z,35.72
2023-02-03T23:03:49.096Z,29.30
2023-02-03T23:06:17.028Z,28.05
2023-02-03T23:08:46.939Z,34.47
2023-02-03T23:11:32.279Z,30.55
2023-02-03T23:14:08.643Z,35.08
2023-02-03T23:16:37.691Z,39.47
2023-02-03T23:19:15.454Z,27.08
2023-02-03T23:21:46.098Z,33.13
2023-02-03T23:24:18.372Z,36.50
2023-02-03T23:26:47.560Z,28.15
2023-02-03T23:32:20.106Z,34.70
2023-02-03T23:35:05.171Z,34.40
2023-02-03T23:37:34.098Z,28.58
2023-02-03T23:40:07.349Z,34.17
2023-02-03T23:42:39.863Z,33.70
2023-02-03T23:48:01.278Z,43.80
2023-02-03T23:50:30.757Z,33.30
2023-02-03T23:52:58.603Z,32.63
2023-02-03T23:55:28.063Z,33.92
2023-02-03T23:57:54.622Z,36.95
